sensor_id;sensor_type;location;lat;lon;timestamp;P1;durP1;ratioP1;P2;durP2;ratioP2
14048;SDS011;7099;53.922;10.728;2022-07-23T00:03:11;3.40;;;1.67;;
14048;SDS011;7099;53.922;10.728;2022-07-23T00:07:37;4.40;;;1.93;;
14048;SDS011;7099;53.922;10.728;2022-07-23T00:12:03;2.30;;;1.33;;
14048;SDS011;7099;53.922;10.728;2022-07-23T00:16:29;3.70;;;1.90;;
14048;SDS011;7099;53.922;10.728;2022-07-23T00:20:54;4.43;;;1.40;;
14048;SDS011;7099;53.922;10.728;2022-07-23T00:25:20;2.37;;;1.40;;
14048;SDS011;7099;53.922;10.728;2022-07-23T00:29:53;3.53;;;1.30;;
14048;SDS011;7099;53.922;10.728;2022-07-23T00:34:19;2.50;;;1.40;;
14048;SDS011;7099;53.922;10.728;2022-07-23T00:38:44;1.87;;;1.40;;
14048;SDS011;7099;53.922;10.728;2022-07-23T00:43:09;5.30;;;1.67;;
14048;SDS011;7099;53.922;10.728;2022-07-23T00:47:35;5.73;;;1.30;;
14048;SDS011;7099;53.922;10.728;2022-07-23T00:52:01;3.97;;;1.20;;
14048;SDS011;7099;53.922;10.728;2022-07-23T00:56:27;2.90;;;1.30;;
14048;SDS011;7099;53.922;10.728;2022-07-23T01:00:52;3.97;;;1.63;;
14048;SDS011;7099;53.922;10.728;2022-07-23T01:05:17;2.93;;;1.30;;
14048;SDS011;7099;53.922;10.728;2022-07-23T01:09:46;3.87;;;1.27;;
14048;SDS011;7099;53.922;10.728;2022-07-23T01:14:13;2.50;;;1.40;;
14048;SDS011;7099;53.922;10.728;2022-07-23T01:18:40;4.10;;;1.40;;
14048;SDS011;7099;53.922;10.728;2022-07-23T01:23:05;2.67;;;1.50;;
14048;SDS011;7099;53.922;10.728;2022-07-23T01:27:31;2.40;;;1.37;;
14048;SDS011;7099;53.922;10.728;2022-07-23T01:31:56;4.77;;;1.83;;
14048;SDS011;7099;53.922;10.728;2022-07-23T01:36:21;4.40;;;1.48;;
14048;SDS011;7099;53.922;10.728;2022-07-23T01:40:47;2.87;;;1.40;;
14048;SDS011;7099;53.922;10.728;2022-07-23T01:45:18;2.93;;;1.30;;
14048;SDS011;7099;53.922;10.728;2022-07-23T01:49:43;4.83;;;1.63;;
14048;SDS011;7099;53.922;10.728;2022-07-23T01:54:08;3.10;;;1.50;;
14048;SDS011;7099;53.922;10.728;2022-07-23T01:58:34;6.90;;;1.27;;
14048;SDS011;7099;53.922;10.728;2022-07-23T02:02:59;2.57;;;1.37;;
14048;SDS011;7099;53.922;10.728;2022-07-23T02:07:24;3.33;;;1.70;;
14048;SDS011;7099;53.922;10.728;2022-07-23T02:11:50;3.03;;;1.57;;
14048;SDS011;7099;53.922;10.728;2022-07-23T02:16:15;2.83;;;1.42;;
14048;SDS011;7099;53.922;10.728;2022-07-23T02:20:41;3.85;;;1.60;;
14048;SDS011;7099;53.922;10.728;2022-07-23T02:25:07;4.17;;;1.50;;
14048;SDS011;7099;53.922;10.728;2022-07-23T02:29:33;5.80;;;1.60;;
14048;SDS011;7099;53.922;10.728;2022-07-23T02:33:59;4.53;;;1.50;;
14048;SDS011;7099;53.922;10.728;2022-07-23T02:38:24;2.83;;;1.70;;
14048;SDS011;7099;53.922;10.728;2022-07-23T02:42:50;5.60;;;1.60;;
14048;SDS011;7099;53.922;10.728;2022-07-23T02:47:15;10.80;;;2.23;;
14048;SDS011;7099;53.922;10.728;2022-07-23T02:51:40;5.50;;;1.43;;
14048;SDS011;7099;53.922;10.728;2022-07-23T02:56:06;5.30;;;1.53;;
14048;SDS011;7099;53.922;10.728;2022-07-23T03:00:31;5.90;;;1.70;;
14048;SDS011;7099;53.922;10.728;2022-07-23T03:04:56;3.93;;;1.73;;
14048;SDS011;7099;53.922;10.728;2022-07-23T03:09:22;8.85;;;1.60;;
14048;SDS011;7099;53.922;10.728;2022-07-23T03:13:47;2.05;;;1.60;;
14048;SDS011;7099;53.922;10.728;2022-07-23T03:18:12;5.53;;;1.80;;
14048;SDS011;7099;53.922;10.728;2022-07-23T03:22:38;4.23;;;1.57;;
14048;SDS011;7099;53.922;10.728;2022-07-23T03:27:03;3.15;;;1.80;;
14048;SDS011;7099;53.922;10.728;2022-07-23T03:31:29;4.90;;;2.23;;
14048;SDS011;7099;53.922;10.728;2022-07-23T03:35:55;4.43;;;2.03;;
14048;SDS011;7099;53.922;10.728;2022-07-23T03:40:21;5.40;;;1.67;;
14048;SDS011;7099;53.922;10.728;2022-07-23T03:44:46;7.20;;;1.77;;
14048;SDS011;7099;53.922;10.728;2022-07-23T03:49:12;5.87;;;1.50;;
14048;SDS011;7099;53.922;10.728;2022-07-23T03:53:37;5.43;;;2.00;;
14048;SDS011;7099;53.922;10.728;2022-07-23T03:58:02;3.73;;;1.83;;
14048;SDS011;7099;53.922;10.728;2022-07-23T04:02:27;5.33;;;2.30;;
14048;SDS011;7099;53.922;10.728;2022-07-23T04:06:53;2.50;;;1.67;;
14048;SDS011;7099;53.922;10.728;2022-07-23T04:11:18;2.45;;;1.80;;
14048;SDS011;7099;53.922;10.728;2022-07-23T04:15:44;2.85;;;1.65;;
14048;SDS011;7099;53.922;10.728;2022-07-23T04:20:10;5.13;;;2.10;;
14048;SDS011;7099;53.922;10.728;2022-07-23T04:24:36;3.53;;;2.10;;
14048;SDS011;7099;53.922;10.728;2022-07-23T04:29:02;4.40;;;2.10;;
14048;SDS011;7099;53.922;10.728;2022-07-23T04:33:28;3.60;;;1.67;;
14048;SDS011;7099;53.922;10.728;2022-07-23T04:37:53;1.93;;;1.73;;
14048;SDS011;7099;53.922;10.728;2022-07-23T04:42:19;4.20;;;1.87;;
14048;SDS011;7099;53.922;10.728;2022-07-23T04:46:44;5.80;;;1.73;;
14048;SDS011;7099;53.922;10.728;2022-07-23T04:51:10;3.10;;;1.55;;
14048;SDS011;7099;53.922;10.728;2022-07-23T04:55:36;2.93;;;1.60;;
14048;SDS011;7099;53.922;10.728;2022-07-23T05:00:02;4.03;;;1.70;;
14048;SDS011;7099;53.922;10.728;2022-07-23T05:04:28;2.47;;;1.95;;
14048;SDS011;7099;53.922;10.728;2022-07-23T05:08:54;2.85;;;1.90;;
14048;SDS011;7099;53.922;10.728;2022-07-23T05:13:20;2.43;;;1.47;;
14048;SDS011;7099;53.922;10.728;2022-07-23T05:17:45;5.00;;;1.83;;
14048;SDS011;7099;53.922;10.728;2022-07-23T05:22:10;2.93;;;1.40;;
14048;SDS011;7099;53.922;10.728;2022-07-23T05:26:36;4.23;;;1.73;;
14048;SDS011;7099;53.922;10.728;2022-07-23T05:31:02;4.27;;;1.60;;
14048;SDS011;7099;53.922;10.728;2022-07-23T05:35:28;3.03;;;1.60;;
14048;SDS011;7099;53.922;10.728;2022-07-23T05:39:53;1.60;;;1.40;;
14048;SDS011;7099;53.922;10.728;2022-07-23T05:44:19;3.43;;;1.47;;
14048;SDS011;7099;53.922;10.728;2022-07-23T05:48:45;2.30;;;1.33;;
14048;SDS011;7099;53.922;10.728;2022-07-23T05:53:14;6.93;;;1.40;;
14048;SDS011;7099;53.922;10.728;2022-07-23T05:57:40;5.10;;;1.20;;
14048;SDS011;7099;53.922;10.728;2022-07-23T06:02:06;3.07;;;1.40;;
14048;SDS011;7099;53.922;10.728;2022-07-23T06:06:31;2.60;;;1.20;;
14048;SDS011;7099;53.922;10.728;2022-07-23T06:10:56;3.87;;;1.50;;
14048;SDS011;7099;53.922;10.728;2022-07-23T06:15:22;2.03;;;1.23;;
14048;SDS011;7099;53.922;10.728;2022-07-23T06:19:47;3.80;;;1.77;;
14048;SDS011;7099;53.922;10.728;2022-07-23T06:24:15;2.85;;;1.40;;
14048;SDS011;7099;53.922;10.728;2022-07-23T06:28:41;3.13;;;1.20;;
14048;SDS011;7099;53.922;10.728;2022-07-23T06:33:06;1.10;;;1.00;;
14048;SDS011;7099;53.922;10.728;2022-07-23T06:37:31;3.17;;;1.40;;
14048;SDS011;7099;53.922;10.728;2022-07-23T06:41:57;4.10;;;1.30;;
14048;SDS011;7099;53.922;10.728;2022-07-23T06:46:24;2.20;;;1.30;;
14048;SDS011;7099;53.922;10.728;2022-07-23T06:50:53;1.87;;;1.20;;
14048;SDS011;7099;53.922;10.728;2022-07-23T06:55:19;3.97;;;1.20;;
14048;SDS011;7099;53.922;10.728;2022-07-23T06:59:44;6.33;;;1.30;;
14048;SDS011;7099;53.922;10.728;2022-07-23T07:04:09;2.90;;;1.13;;
14048;SDS011;7099;53.922;10.728;2022-07-23T07:08:35;3.97;;;1.30;;
14048;SDS011;7099;53.922;10.728;2022-07-23T07:13:00;4.97;;;1.10;;
14048;SDS011;7099;53.922;10.728;2022-07-23T07:17:25;1.87;;;1.10;;
14048;SDS011;7099;53.922;10.728;2022-07-23T07:21:50;3.73;;;1.20;;
14048;SDS011;7099;53.922;10.728;2022-07-23T07:26:16;1.27;;;1.00;;
14048;SDS011;7099;53.922;10.728;2022-07-23T07:30:41;2.47;;;1.10;;
14048;SDS011;7099;53.922;10.728;2022-07-23T07:35:06;1.50;;;1.00;;
14048;SDS011;7099;53.922;10.728;2022-07-23T07:39:35;2.00;;;1.20;;
14048;SDS011;7099;53.922;10.728;2022-07-23T07:44:01;2.60;;;1.20;;
14048;SDS011;7099;53.922;10.728;2022-07-23T07:48:27;1.67;;;1.30;;
14048;SDS011;7099;53.922;10.728;2022-07-23T07:52:52;1.37;;;0.90;;
14048;SDS011;7099;53.922;10.728;2022-07-23T07:57:17;1.80;;;1.10;;
14048;SDS011;7099;53.922;10.728;2022-07-23T08:01:43;2.20;;;1.27;;
14048;SDS011;7099;53.922;10.728;2022-07-23T08:06:08;2.70;;;1.10;;
14048;SDS011;7099;53.922;10.728;2022-07-23T08:10:33;2.27;;;1.17;;
14048;SDS011;7099;53.922;10.728;2022-07-23T08:14:58;2.07;;;1.00;;
14048;SDS011;7099;53.922;10.728;2022-07-23T08:19:24;3.30;;;1.20;;
14048;SDS011;7099;53.922;10.728;2022-07-23T08:23:49;2.53;;;1.00;;
14048;SDS011;7099;53.922;10.728;2022-07-23T08:28:15;1.07;;;1.00;;
14048;SDS011;7099;53.922;10.728;2022-07-23T08:33:02;2.87;;;1.13;;
14048;SDS011;7099;53.922;10.728;2022-07-23T08:37:56;2.70;;;1.20;;
14048;SDS011;7099;53.922;10.728;2022-07-23T08:42:22;1.30;;;0.83;;
14048;SDS011;7099;53.922;10.728;2022-07-23T08:46:48;2.80;;;1.20;;
14048;SDS011;7099;53.922;10.728;2022-07-23T08:51:14;1.90;;;0.90;;
14048;SDS011;7099;53.922;10.728;2022-07-23T08:55:42;5.77;;;1.10;;
14048;SDS011;7099;53.922;10.728;2022-07-23T09:00:14;2.07;;;1.00;;
14048;SDS011;7099;53.922;10.728;2022-07-23T09:04:41;4.27;;;1.00;;
14048;SDS011;7099;53.922;10.728;2022-07-23T09:09:16;2.63;;;1.20;;
14048;SDS011;7099;53.922;10.728;2022-07-23T09:13:49;1.33;;;0.90;;
14048;SDS011;7099;53.922;10.728;2022-07-23T09:18:18;3.73;;;1.10;;
14048;SDS011;7099;53.922;10.728;2022-07-23T09:22:44;3.20;;;1.20;;
14048;SDS011;7099;53.922;10.728;2022-07-23T09:27:11;1.60;;;1.17;;
14048;SDS011;7099;53.922;10.728;2022-07-23T09:36:28;3.53;;;1.10;;
14048;SDS011;7099;53.922;10.728;2022-07-23T09:41:09;1.80;;;1.00;;
14048;SDS011;7099;53.922;10.728;2022-07-23T09:45:36;3.10;;;1.23;;
14048;SDS011;7099;53.922;10.728;2022-07-23T09:50:05;2.87;;;1.23;;
14048;SDS011;7099;53.922;10.728;2022-07-23T09:54:36;0.90;;;0.80;;
14048;SDS011;7099;53.922;10.728;2022-07-23T09:59:04;2.30;;;1.00;;
14048;SDS011;7099;53.922;10.728;2022-07-23T10:03:31;3.03;;;1.40;;
14048;SDS011;7099;53.922;10.728;2022-07-23T10:07:57;1.40;;;0.97;;
14048;SDS011;7099;53.922;10.728;2022-07-23T10:12:26;3.90;;;1.10;;
14048;SDS011;7099;53.922;10.728;2022-07-23T10:16:52;4.37;;;1.10;;
14048;SDS011;7099;53.922;10.728;2022-07-23T10:21:25;3.22;;;1.20;;
14048;SDS011;7099;53.922;10.728;2022-07-23T10:36:23;2.13;;;1.00;;
14048;SDS011;7099;53.922;10.728;2022-07-23T10:41:02;1.80;;;0.95;;
14048;SDS011;7099;53.922;10.728;2022-07-23T10:45:35;3.17;;;1.27;;
14048;SDS011;7099;53.922;10.728;2022-07-23T10:59:26;2.80;;;0.90;;
14048;SDS011;7099;53.922;10.728;2022-07-23T11:03:57;2.80;;;1.07;;
14048;SDS011;7099;53.922;10.728;2022-07-23T11:08:24;3.57;;;1.00;;
14048;SDS011;7099;53.922;10.728;2022-07-23T11:12:49;1.57;;;0.90;;
14048;SDS011;7099;53.922;10.728;2022-07-23T11:17:19;3.28;;;1.52;;
14048;SDS011;7099;53.922;10.728;2022-07-23T11:21:45;2.00;;;1.00;;
14048;SDS011;7099;53.922;10.728;2022-07-23T11:31:01;1.87;;;1.00;;
14048;SDS011;7099;53.922;10.728;2022-07-23T11:35:47;3.67;;;0.93;;
14048;SDS011;7099;53.922;10.728;2022-07-23T11:40:26;1.00;;;0.90;;
14048;SDS011;7099;53.922;10.728;2022-07-23T11:44:51;7.03;;;1.20;;
14048;SDS011;7099;53.922;10.728;2022-07-23T11:49:17;1.60;;;0.90;;
14048;SDS011;7099;53.922;10.728;2022-07-23T11:53:44;3.60;;;1.20;;
14048;SDS011;7099;53.922;10.728;2022-07-23T11:58:10;3.07;;;0.97;;
14048;SDS011;7099;53.922;10.728;2022-07-23T12:02:36;2.73;;;1.10;;
14048;SDS011;7099;53.922;10.728;2022-07-23T12:12:00;5.10;;;1.37;;
14048;SDS011;7099;53.922;10.728;2022-07-23T12:16:26;2.13;;;1.20;;
14048;SDS011;7099;53.922;10.728;2022-07-23T12:20:52;6.53;;;1.17;;
14048;SDS011;7099;53.922;10.728;2022-07-23T12:25:22;1.43;;;1.10;;
14048;SDS011;7099;53.922;10.728;2022-07-23T12:29:51;1.30;;;0.90;;
14048;SDS011;7099;53.922;10.728;2022-07-23T12:34:17;1.60;;;0.90;;
14048;SDS011;7099;53.922;10.728;2022-07-23T12:38:49;5.13;;;1.05;;
14048;SDS011;7099;53.922;10.728;2022-07-23T12:48:03;2.70;;;1.00;;
14048;SDS011;7099;53.922;10.728;2022-07-23T12:52:33;4.10;;;1.20;;
14048;SDS011;7099;53.922;10.728;2022-07-23T12:56:59;4.60;;;0.90;;
14048;SDS011;7099;53.922;10.728;2022-07-23T13:01:25;2.53;;;1.77;;
14048;SDS011;7099;53.922;10.728;2022-07-23T13:05:58;4.77;;;0.80;;
14048;SDS011;7099;53.922;10.728;2022-07-23T13:10:26;0.88;;;0.88;;
14048;SDS011;7099;53.922;10.728;2022-07-23T13:14:51;2.07;;;0.80;;
14048;SDS011;7099;53.922;10.728;2022-07-23T13:19:16;1.40;;;0.90;;
14048;SDS011;7099;53.922;10.728;2022-07-23T13:23:44;2.23;;;0.90;;
14048;SDS011;7099;53.922;10.728;2022-07-23T13:28:09;2.20;;;0.80;;
14048;SDS011;7099;53.922;10.728;2022-07-23T13:32:35;2.15;;;0.98;;
14048;SDS011;7099;53.922;10.728;2022-07-23T13:37:01;1.20;;;0.90;;
14048;SDS011;7099;53.922;10.728;2022-07-23T13:41:27;1.53;;;1.00;;
14048;SDS011;7099;53.922;10.728;2022-07-23T13:45:54;2.10;;;0.93;;
14048;SDS011;7099;53.922;10.728;2022-07-23T13:50:19;1.40;;;0.73;;
14048;SDS011;7099;53.922;10.728;2022-07-23T13:54:46;2.30;;;0.90;;
14048;SDS011;7099;53.922;10.728;2022-07-23T13:59:11;1.57;;;0.90;;
14048;SDS011;7099;53.922;10.728;2022-07-23T14:03:36;1.30;;;0.90;;
14048;SDS011;7099;53.922;10.728;2022-07-23T14:08:02;3.27;;;1.13;;
14048;SDS011;7099;53.922;10.728;2022-07-23T14:12:28;2.63;;;0.80;;
14048;SDS011;7099;53.922;10.728;2022-07-23T14:16:58;2.40;;;1.00;;
14048;SDS011;7099;53.922;10.728;2022-07-23T14:21:25;2.63;;;0.90;;
14048;SDS011;7099;53.922;10.728;2022-07-23T14:25:50;2.17;;;1.10;;
14048;SDS011;7099;53.922;10.728;2022-07-23T14:30:16;2.30;;;0.97;;
14048;SDS011;7099;53.922;10.728;2022-07-23T14:34:47;1.10;;;0.90;;
14048;SDS011;7099;53.922;10.728;2022-07-23T14:39:13;2.83;;;0.90;;
14048;SDS011;7099;53.922;10.728;2022-07-23T14:43:39;2.43;;;1.10;;
14048;SDS011;7099;53.922;10.728;2022-07-23T14:48:05;3.00;;;1.20;;
14048;SDS011;7099;53.922;10.728;2022-07-23T14:52:32;4.30;;;1.30;;
14048;SDS011;7099;53.922;10.728;2022-07-23T14:56:57;2.07;;;1.17;;
14048;SDS011;7099;53.922;10.728;2022-07-23T15:01:24;3.80;;;1.47;;
14048;SDS011;7099;53.922;10.728;2022-07-23T15:05:50;3.10;;;1.47;;
14048;SDS011;7099;53.922;10.728;2022-07-23T15:10:17;2.60;;;1.23;;
14048;SDS011;7099;53.922;10.728;2022-07-23T15:14:46;6.53;;;1.20;;
14048;SDS011;7099;53.922;10.728;2022-07-23T15:19:11;2.07;;;0.90;;
14048;SDS011;7099;53.922;10.728;2022-07-23T15:23:36;1.50;;;1.10;;
14048;SDS011;7099;53.922;10.728;2022-07-23T15:28:04;5.57;;;1.38;;
14048;SDS011;7099;53.922;10.728;2022-07-23T15:32:49;1.90;;;0.90;;
14048;SDS011;7099;53.922;10.728;2022-07-23T15:37:15;2.70;;;0.90;;
14048;SDS011;7099;53.922;10.728;2022-07-23T15:41:40;2.63;;;1.00;;
14048;SDS011;7099;53.922;10.728;2022-07-23T15:46:07;2.93;;;0.90;;
14048;SDS011;7099;53.922;10.728;2022-07-23T15:50:32;2.60;;;0.80;;
14048;SDS011;7099;53.922;10.728;2022-07-23T15:54:58;5.97;;;1.00;;
14048;SDS011;7099;53.922;10.728;2022-07-23T15:59:23;1.77;;;1.00;;
14048;SDS011;7099;53.922;10.728;2022-07-23T16:03:53;1.33;;;0.93;;
14048;SDS011;7099;53.922;10.728;2022-07-23T16:08:18;1.75;;;0.90;;
14048;SDS011;7099;53.922;10.728;2022-07-23T16:12:43;3.43;;;1.00;;
14048;SDS011;7099;53.922;10.728;2022-07-23T16:17:09;1.00;;;0.90;;
14048;SDS011;7099;53.922;10.728;2022-07-23T16:21:34;1.37;;;0.90;;
14048;SDS011;7099;53.922;10.728;2022-07-23T16:26:00;2.77;;;1.00;;
14048;SDS011;7099;53.922;10.728;2022-07-23T16:30:25;1.77;;;1.10;;
14048;SDS011;7099;53.922;10.728;2022-07-23T16:34:51;2.10;;;0.90;;
14048;SDS011;7099;53.922;10.728;2022-07-23T16:39:16;1.83;;;0.90;;
14048;SDS011;7099;53.922;10.728;2022-07-23T16:43:42;2.23;;;0.90;;
14048;SDS011;7099;53.922;10.728;2022-07-23T16:48:07;1.43;;;0.90;;
14048;SDS011;7099;53.922;10.728;2022-07-23T16:52:33;2.27;;;1.00;;
14048;SDS011;7099;53.922;10.728;2022-07-23T16:56:59;5.63;;;1.10;;
14048;SDS011;7099;53.922;10.728;2022-07-23T17:01:24;0.90;;;0.80;;
14048;SDS011;7099;53.922;10.728;2022-07-23T17:05:50;1.00;;;0.90;;
14048;SDS011;7099;53.922;10.728;2022-07-23T17:10:16;1.27;;;1.00;;
14048;SDS011;7099;53.922;10.728;2022-07-23T17:14:41;3.30;;;0.87;;
14048;SDS011;7099;53.922;10.728;2022-07-23T17:19:06;1.52;;;1.15;;
14048;SDS011;7099;53.922;10.728;2022-07-23T17:23:32;3.70;;;1.20;;
14048;SDS011;7099;53.922;10.728;2022-07-23T17:27:57;3.50;;;2.40;;
14048;SDS011;7099;53.922;10.728;2022-07-23T17:32:23;2.87;;;0.97;;
14048;SDS011;7099;53.922;10.728;2022-07-23T17:36:48;4.80;;;1.17;;
14048;SDS011;7099;53.922;10.728;2022-07-23T17:41:15;1.93;;;0.90;;
14048;SDS011;7099;53.922;10.728;2022-07-23T17:45:40;2.67;;;1.17;;
14048;SDS011;7099;53.922;10.728;2022-07-23T17:50:07;2.40;;;1.10;;
14048;SDS011;7099;53.922;10.728;2022-07-23T17:54:33;2.13;;;1.03;;
14048;SDS011;7099;53.922;10.728;2022-07-23T17:58:59;2.77;;;1.10;;
14048;SDS011;7099;53.922;10.728;2022-07-23T18:03:25;1.63;;;1.10;;
14048;SDS011;7099;53.922;10.728;2022-07-23T18:07:50;5.70;;;1.70;;
14048;SDS011;7099;53.922;10.728;2022-07-23T18:12:16;2.57;;;1.30;;
14048;SDS011;7099;53.922;10.728;2022-07-23T18:16:41;3.37;;;1.43;;
14048;SDS011;7099;53.922;10.728;2022-07-23T18:21:07;4.22;;;1.20;;
14048;SDS011;7099;53.922;10.728;2022-07-23T18:25:32;3.87;;;1.30;;
14048;SDS011;7099;53.922;10.728;2022-07-23T18:29:58;2.17;;;1.10;;
14048;SDS011;7099;53.922;10.728;2022-07-23T18:34:23;2.07;;;1.00;;
14048;SDS011;7099;53.922;10.728;2022-07-23T18:38:48;3.93;;;1.03;;
14048;SDS011;7099;53.922;10.728;2022-07-23T18:43:22;2.50;;;1.23;;
14048;SDS011;7099;53.922;10.728;2022-07-23T18:47:47;3.07;;;1.03;;
14048;SDS011;7099;53.922;10.728;2022-07-23T18:52:13;2.37;;;1.30;;
14048;SDS011;7099;53.922;10.728;2022-07-23T18:56:38;1.53;;;1.00;;
14048;SDS011;7099;53.922;10.728;2022-07-23T19:01:04;3.50;;;1.13;;
14048;SDS011;7099;53.922;10.728;2022-07-23T19:05:31;3.70;;;1.27;;
14048;SDS011;7099;53.922;10.728;2022-07-23T19:09:57;3.83;;;1.20;;
14048;SDS011;7099;53.922;10.728;2022-07-23T19:14:22;3.40;;;1.57;;
14048;SDS011;7099;53.922;10.728;2022-07-23T19:18:47;4.17;;;1.10;;
14048;SDS011;7099;53.922;10.728;2022-07-23T19:23:13;2.47;;;1.17;;
14048;SDS011;7099;53.922;10.728;2022-07-23T19:27:38;1.95;;;1.10;;
14048;SDS011;7099;53.922;10.728;2022-07-23T19:32:04;7.97;;;1.40;;
14048;SDS011;7099;53.922;10.728;2022-07-23T19:36:30;2.00;;;1.30;;
14048;SDS011;7099;53.922;10.728;2022-07-23T19:40:56;1.23;;;1.10;;
14048;SDS011;7099;53.922;10.728;2022-07-23T19:45:21;1.40;;;1.20;;
14048;SDS011;7099;53.922;10.728;2022-07-23T19:49:46;1.87;;;1.20;;
14048;SDS011;7099;53.922;10.728;2022-07-23T19:54:12;2.93;;;1.27;;
14048;SDS011;7099;53.922;10.728;2022-07-23T19:58:37;1.33;;;1.02;;
14048;SDS011;7099;53.922;10.728;2022-07-23T20:03:03;2.50;;;1.20;;
14048;SDS011;7099;53.922;10.728;2022-07-23T20:07:29;4.40;;;1.30;;
14048;SDS011;7099;53.922;10.728;2022-07-23T20:11:54;2.13;;;1.20;;
14048;SDS011;7099;53.922;10.728;2022-07-23T20:16:20;2.20;;;1.50;;
14048;SDS011;7099;53.922;10.728;2022-07-23T20:20:45;2.30;;;1.00;;
14048;SDS011;7099;53.922;10.728;2022-07-23T20:25:10;5.03;;;1.30;;
14048;SDS011;7099;53.922;10.728;2022-07-23T20:29:36;1.73;;;1.20;;
14048;SDS011;7099;53.922;10.728;2022-07-23T20:34:01;1.40;;;1.17;;
14048;SDS011;7099;53.922;10.728;2022-07-23T20:38:26;3.13;;;1.20;;
14048;SDS011;7099;53.922;10.728;2022-07-23T20:42:52;3.10;;;1.30;;
14048;SDS011;7099;53.922;10.728;2022-07-23T20:47:17;1.57;;;1.47;;
14048;SDS011;7099;53.922;10.728;2022-07-23T20:51:43;5.47;;;1.73;;
14048;SDS011;7099;53.922;10.728;2022-07-23T20:56:10;2.60;;;1.43;;
14048;SDS011;7099;53.922;10.728;2022-07-23T21:00:35;2.37;;;1.50;;
14048;SDS011;7099;53.922;10.728;2022-07-23T21:05:00;3.70;;;1.40;;
14048;SDS011;7099;53.922;10.728;2022-07-23T21:09:26;5.57;;;1.50;;
14048;SDS011;7099;53.922;10.728;2022-07-23T21:13:51;2.90;;;1.40;;
14048;SDS011;7099;53.922;10.728;2022-07-23T21:18:16;6.00;;;1.60;;
14048;SDS011;7099;53.922;10.728;2022-07-23T21:22:42;3.40;;;1.40;;
14048;SDS011;7099;53.922;10.728;2022-07-23T21:27:08;3.30;;;1.50;;
14048;SDS011;7099;53.922;10.728;2022-07-23T21:31:35;3.03;;;1.30;;
14048;SDS011;7099;53.922;10.728;2022-07-23T21:36:01;3.13;;;1.60;;
14048;SDS011;7099;53.922;10.728;2022-07-23T21:40:28;2.60;;;1.60;;
14048;SDS011;7099;53.922;10.728;2022-07-23T21:44:53;2.20;;;1.77;;
14048;SDS011;7099;53.922;10.728;2022-07-23T21:49:18;2.60;;;1.55;;
14048;SDS011;7099;53.922;10.728;2022-07-23T21:53:44;3.40;;;1.70;;
14048;SDS011;7099;53.922;10.728;2022-07-23T21:58:09;2.30;;;1.63;;
14048;SDS011;7099;53.922;10.728;2022-07-23T22:02:35;9.20;;;1.63;;
14048;SDS011;7099;53.922;10.728;2022-07-23T22:07:00;2.73;;;1.70;;
14048;SDS011;7099;53.922;10.728;2022-07-23T22:11:25;4.90;;;1.70;;
14048;SDS011;7099;53.922;10.728;2022-07-23T22:15:51;1.77;;;1.40;;
14048;SDS011;7099;53.922;10.728;2022-07-23T22:20:16;3.00;;;1.80;;
14048;SDS011;7099;53.922;10.728;2022-07-23T22:24:42;2.40;;;1.50;;
14048;SDS011;7099;53.922;10.728;2022-07-23T22:29:07;1.50;;;1.30;;
14048;SDS011;7099;53.922;10.728;2022-07-23T22:33:33;4.60;;;1.65;;
14048;SDS011;7099;53.922;10.728;2022-07-23T22:37:58;2.13;;;1.87;;
14048;SDS011;7099;53.922;10.728;2022-07-23T22:42:23;2.10;;;1.63;;
14048;SDS011;7099;53.922;10.728;2022-07-23T22:46:49;4.77;;;1.53;;
14048;SDS011;7099;53.922;10.728;2022-07-23T22:51:14;8.43;;;1.77;;
14048;SDS011;7099;53.922;10.728;2022-07-23T22:55:43;2.35;;;1.50;;
14048;SDS011;7099;53.922;10.728;2022-07-23T23:00:08;11.07;;;2.03;;
14048;SDS011;7099;53.922;10.728;2022-07-23T23:04:43;6.10;;;1.83;;
14048;SDS011;7099;53.922;10.728;2022-07-23T23:09:08;3.15;;;1.92;;
14048;SDS011;7099;53.922;10.728;2022-07-23T23:13:33;4.15;;;2.08;;
14048;SDS011;7099;53.922;10.728;2022-07-23T23:17:59;3.70;;;1.90;;
14048;SDS011;7099;53.922;10.728;2022-07-23T23:22:24;5.40;;;1.80;;
14048;SDS011;7099;53.922;10.728;2022-07-23T23:26:49;3.50;;;1.80;;
14048;SDS011;7099;53.922;10.728;2022-07-23T23:31:14;3.43;;;1.60;;
14048;SDS011;7099;53.922;10.728;2022-07-23T23:35:40;5.97;;;1.77;;
14048;SDS011;7099;53.922;10.728;2022-07-23T23:40:06;2.90;;;1.83;;
14048;SDS011;7099;53.922;10.728;2022-07-23T23:44:32;2.22;;;1.70;;
14048;SDS011;7099;53.922;10.728;2022-07-23T23:48:57;3.97;;;1.90;;
14048;SDS011;7099;53.922;10.728;2022-07-23T23:53:23;3.35;;;1.90;;
14048;SDS011;7099;53.922;10.728;2022-07-23T23:57:48;1.92;;;1.65;;
